sensor_id;sensor_type;location;lat;lon;timestamp;pressure;altitude;pressure_sealevel;temperature;humidity
64521;BME280;50896;46.714;17.322;2023-06-24T00:00:22;100685.53;;;21.43;100.00
64521;BME280;50896;46.714;17.322;2023-06-24T00:02:49;100696.81;;;21.40;100.00
64521;BME280;50896;46.714;17.322;2023-06-24T00:05:17;100698.03;;;21.26;100.00
64521;BME280;50896;46.714;17.322;2023-06-24T00:07:44;100714.78;;;21.16;100.00
64521;BME280;50896;46.714;17.322;2023-06-24T00:10:14;100722.44;;;21.00;100.00
64521;BME280;50896;46.714;17.322;2023-06-24T00:12:42;100734.06;;;21.01;100.00
64521;BME280;50896;46.714;17.322;2023-06-24T00:15:09;100750.25;;;20.82;100.00
64521;BME280;50896;46.714;17.322;2023-06-24T00:17:37;100734.78;;;20.71;100.00
64521;BME280;50896;46.714;17.322;2023-06-24T00:20:04;100729.97;;;20.73;100.00
64521;BME280;50896;46.714;17.322;2023-06-24T00:22:33;100734.84;;;20.83;100.00
64521;BME280;50896;46.714;17.322;2023-06-24T00:25:00;100726.56;;;21.03;100.00
64521;BME280;50896;46.714;17.322;2023-06-24T00:27:27;100726.28;;;21.11;100.00
64521;BME280;50896;46.714;17.322;2023-06-24T00:29:54;100723.78;;;21.28;100.00
64521;BME280;50896;46.714;17.322;2023-06-24T00:32:21;100725.22;;;21.31;100.00
64521;BME280;50896;46.714;17.322;2023-06-24T00:34:49;100704.03;;;21.28;100.00
64521;BME280;50896;46.714;17.322;2023-06-24T00:37:17;100719.81;;;21.31;100.00
64521;BME280;50896;46.714;17.322;2023-06-24T00:39:44;100722.06;;;21.15;100.00
64521;BME280;50896;46.714;17.322;2023-06-24T00:42:11;100733.63;;;21.23;100.00
64521;BME280;50896;46.714;17.322;2023-06-24T00:44:38;100725.66;;;21.28;100.00
64521;BME280;50896;46.714;17.322;2023-06-24T00:47:06;100714.19;;;21.32;100.00
64521;BME280;50896;46.714;17.322;2023-06-24T00:49:34;100726.47;;;21.47;100.00
64521;BME280;50896;46.714;17.322;2023-06-24T00:52:02;100727.53;;;21.46;100.00
64521;BME280;50896;46.714;17.322;2023-06-24T00:54:29;100740.00;;;21.47;100.00
64521;BME280;50896;46.714;17.322;2023-06-24T00:56:58;100736.63;;;21.33;100.00
64521;BME280;50896;46.714;17.322;2023-06-24T00:59:27;100730.31;;;21.21;100.00
64521;BME280;50896;46.714;17.322;2023-06-24T01:01:59;100730.53;;;21.00;100.00
64521;BME280;50896;46.714;17.322;2023-06-24T01:04:28;100727.50;;;20.90;100.00
64521;BME280;50896;46.714;17.322;2023-06-24T01:06:55;100718.00;;;20.88;100.00
64521;BME280;50896;46.714;17.322;2023-06-24T01:09:23;100705.75;;;20.85;100.00
64521;BME280;50896;46.714;17.322;2023-06-24T01:11:51;100692.59;;;20.89;100.00
64521;BME280;50896;46.714;17.322;2023-06-24T01:14:18;100695.81;;;20.79;100.00
64521;BME280;50896;46.714;17.322;2023-06-24T01:33:24;100652.00;;;20.95;100.00
64521;BME280;50896;46.714;17.322;2023-06-24T01:35:54;100664.06;;;21.30;100.00
64521;BME280;50896;46.714;17.322;2023-06-24T01:38:36;100654.53;;;21.27;100.00
64521;BME280;50896;46.714;17.322;2023-06-24T01:41:06;100665.03;;;21.36;100.00
64521;BME280;50896;46.714;17.322;2023-06-24T01:43:34;100655.28;;;21.34;100.00
64521;BME280;50896;46.714;17.322;2023-06-24T01:46:03;100638.78;;;21.24;100.00
64521;BME280;50896;46.714;17.322;2023-06-24T01:48:35;100633.03;;;21.02;100.00
64521;BME280;50896;46.714;17.322;2023-06-24T01:51:10;100612.63;;;21.18;100.00
64521;BME280;50896;46.714;17.322;2023-06-24T01:53:42;100607.38;;;21.23;100.00
64521;BME280;50896;46.714;17.322;2023-06-24T01:56:12;100598.31;;;21.17;100.00
64521;BME280;50896;46.714;17.322;2023-06-24T01:58:45;100609.28;;;21.23;100.00
64521;BME280;50896;46.714;17.322;2023-06-24T02:01:13;100619.78;;;21.31;100.00
64521;BME280;50896;46.714;17.322;2023-06-24T02:03:41;100609.63;;;21.26;100.00
64521;BME280;50896;46.714;17.322;2023-06-24T02:06:09;100617.66;;;21.33;100.00
64521;BME280;50896;46.714;17.322;2023-06-24T02:08:40;100621.22;;;21.15;100.00
64521;BME280;50896;46.714;17.322;2023-06-24T02:11:08;100629.00;;;21.23;100.00
64521;BME280;50896;46.714;17.322;2023-06-24T02:13:37;100638.56;;;21.07;100.00
64521;BME280;50896;46.714;17.322;2023-06-24T02:16:12;100630.53;;;21.00;100.00
64521;BME280;50896;46.714;17.322;2023-06-24T02:18:40;100636.63;;;20.77;100.00
64521;BME280;50896;46.714;17.322;2023-06-24T02:21:11;100645.72;;;20.58;100.00
64521;BME280;50896;46.714;17.322;2023-06-24T02:23:39;100661.84;;;20.46;100.00
64521;BME280;50896;46.714;17.322;2023-06-24T02:26:07;100666.31;;;20.34;100.00
64521;BME280;50896;46.714;17.322;2023-06-24T02:28:34;100669.59;;;20.36;100.00
64521;BME280;50896;46.714;17.322;2023-06-24T02:31:02;100672.38;;;20.29;100.00
64521;BME280;50896;46.714;17.322;2023-06-24T02:33:30;100672.22;;;20.24;100.00
64521;BME280;50896;46.714;17.322;2023-06-24T02:35:57;100683.88;;;20.18;100.00
64521;BME280;50896;46.714;17.322;2023-06-24T02:38:24;100696.13;;;20.13;100.00
64521;BME280;50896;46.714;17.322;2023-06-24T02:40:54;100694.94;;;20.09;100.00
64521;BME280;50896;46.714;17.322;2023-06-24T02:43:21;100706.34;;;20.11;100.00
64521;BME280;50896;46.714;17.322;2023-06-24T02:45:48;100713.91;;;19.96;100.00
64521;BME280;50896;46.714;17.322;2023-06-24T02:48:16;100711.66;;;19.93;100.00
64521;BME280;50896;46.714;17.322;2023-06-24T02:50:44;100711.66;;;19.93;100.00
64521;BME280;50896;46.714;17.322;2023-06-24T02:53:12;100724.31;;;19.92;100.00
64521;BME280;50896;46.714;17.322;2023-06-24T02:55:41;100727.84;;;19.93;100.00
64521;BME280;50896;46.714;17.322;2023-06-24T02:58:09;100728.22;;;19.96;100.00
64521;BME280;50896;46.714;17.322;2023-06-24T03:00:46;100738.69;;;19.86;100.00
64521;BME280;50896;46.714;17.322;2023-06-24T03:03:27;100730.97;;;19.90;100.00
64521;BME280;50896;46.714;17.322;2023-06-24T03:05:56;100732.28;;;19.80;100.00
64521;BME280;50896;46.714;17.322;2023-06-24T03:08:25;100719.81;;;19.79;100.00
64521;BME280;50896;46.714;17.322;2023-06-24T03:10:56;100746.41;;;19.69;100.00
64521;BME280;50896;46.714;17.322;2023-06-24T03:13:25;100731.25;;;19.68;100.00
64521;BME280;50896;46.714;17.322;2023-06-24T03:15:59;100740.81;;;19.64;100.00
64521;BME280;50896;46.714;17.322;2023-06-24T03:18:28;100743.97;;;19.54;100.00
64521;BME280;50896;46.714;17.322;2023-06-24T03:20:56;100738.94;;;19.64;100.00
64521;BME280;50896;46.714;17.322;2023-06-24T03:23:26;100760.06;;;19.74;100.00
64521;BME280;50896;46.714;17.322;2023-06-24T03:25:53;100756.19;;;20.09;100.00
64521;BME280;50896;46.714;17.322;2023-06-24T03:28:21;100773.56;;;20.20;100.00
64521;BME280;50896;46.714;17.322;2023-06-24T03:30:55;100738.03;;;20.23;100.00
64521;BME280;50896;46.714;17.322;2023-06-24T03:33:22;100765.34;;;20.33;100.00
64521;BME280;50896;46.714;17.322;2023-06-24T03:35:49;100786.75;;;20.35;100.00
64521;BME280;50896;46.714;17.322;2023-06-24T03:38:19;100778.84;;;20.33;100.00
64521;BME280;50896;46.714;17.322;2023-06-24T03:40:46;100791.47;;;20.46;100.00
64521;BME280;50896;46.714;17.322;2023-06-24T03:43:13;100781.88;;;20.50;100.00
64521;BME280;50896;46.714;17.322;2023-06-24T03:45:40;100770.66;;;20.46;100.00
64521;BME280;50896;46.714;17.322;2023-06-24T03:48:07;100800.16;;;20.48;100.00
64521;BME280;50896;46.714;17.322;2023-06-24T03:50:34;100794.13;;;20.53;100.00
64521;BME280;50896;46.714;17.322;2023-06-24T03:53:02;100790.31;;;20.60;100.00
64521;BME280;50896;46.714;17.322;2023-06-24T03:55:29;100803.22;;;20.58;100.00
64521;BME280;50896;46.714;17.322;2023-06-24T03:57:57;100793.09;;;20.47;100.00
64521;BME280;50896;46.714;17.322;2023-06-24T04:00:25;100798.00;;;20.57;100.00
64521;BME280;50896;46.714;17.322;2023-06-24T04:02:52;100798.22;;;20.55;100.00
64521;BME280;50896;46.714;17.322;2023-06-24T04:05:20;100801.59;;;20.51;100.00
64521;BME280;50896;46.714;17.322;2023-06-24T04:07:48;100804.56;;;20.42;100.00
64521;BME280;50896;46.714;17.322;2023-06-24T04:10:17;100814.53;;;20.42;100.00
64521;BME280;50896;46.714;17.322;2023-06-24T04:12:45;100803.34;;;20.38;100.00
64521;BME280;50896;46.714;17.322;2023-06-24T04:15:13;100804.28;;;20.51;100.00
64521;BME280;50896;46.714;17.322;2023-06-24T04:17:40;100815.78;;;20.39;100.00
64521;BME280;50896;46.714;17.322;2023-06-24T04:20:07;100814.91;;;20.45;100.00
64521;BME280;50896;46.714;17.322;2023-06-24T04:22:39;100809.91;;;20.49;100.00
64521;BME280;50896;46.714;17.322;2023-06-24T04:25:07;100803.47;;;20.50;100.00
64521;BME280;50896;46.714;17.322;2023-06-24T04:27:35;100809.50;;;20.45;100.00
64521;BME280;50896;46.714;17.322;2023-06-24T04:30:05;100809.25;;;20.54;100.00
64521;BME280;50896;46.714;17.322;2023-06-24T04:32:32;100809.91;;;20.49;100.00
64521;BME280;50896;46.714;17.322;2023-06-24T04:34:59;100808.47;;;20.46;100.00
64521;BME280;50896;46.714;17.322;2023-06-24T04:37:28;100814.88;;;20.52;100.00
64521;BME280;50896;46.714;17.322;2023-06-24T04:39:55;100820.63;;;20.62;100.00
64521;BME280;50896;46.714;17.322;2023-06-24T04:42:23;100820.38;;;20.71;100.00
64521;BME280;50896;46.714;17.322;2023-06-24T04:44:50;100831.34;;;20.76;100.00
64521;BME280;50896;46.714;17.322;2023-06-24T04:47:19;100825.91;;;20.82;100.00
64521;BME280;50896;46.714;17.322;2023-06-24T04:49:46;100842.22;;;20.94;100.00
64521;BME280;50896;46.714;17.322;2023-06-24T04:52:13;100849.94;;;20.91;100.00
64521;BME280;50896;46.714;17.322;2023-06-24T04:54:40;100849.31;;;20.89;100.00
64521;BME280;50896;46.714;17.322;2023-06-24T04:57:26;100838.59;;;20.82;100.00
64521;BME280;50896;46.714;17.322;2023-06-24T04:59:53;100839.59;;;20.88;100.00
64521;BME280;50896;46.714;17.322;2023-06-24T05:02:20;100836.00;;;20.94;100.00
64521;BME280;50896;46.714;17.322;2023-06-24T05:04:47;100847.13;;;21.04;100.00
64521;BME280;50896;46.714;17.322;2023-06-24T05:07:14;100855.41;;;21.09;100.00
64521;BME280;50896;46.714;17.322;2023-06-24T05:09:41;100836.47;;;21.09;100.00
64521;BME280;50896;46.714;17.322;2023-06-24T05:12:09;100835.28;;;21.05;100.00
64521;BME280;50896;46.714;17.322;2023-06-24T05:14:36;100837.53;;;21.08;100.00
64521;BME280;50896;46.714;17.322;2023-06-24T05:17:04;100835.88;;;21.07;100.00
64521;BME280;50896;46.714;17.322;2023-06-24T05:19:30;100837.31;;;20.85;100.00
64521;BME280;50896;46.714;17.322;2023-06-24T05:21:58;100847.13;;;21.04;100.00
64521;BME280;50896;46.714;17.322;2023-06-24T05:24:25;100842.41;;;21.18;100.00
64521;BME280;50896;46.714;17.322;2023-06-24T05:26:52;100844.25;;;21.24;100.00
64521;BME280;50896;46.714;17.322;2023-06-24T05:29:19;100854.09;;;21.19;100.00
64521;BME280;50896;46.714;17.322;2023-06-24T05:31:46;100854.16;;;21.30;100.00
64521;BME280;50896;46.714;17.322;2023-06-24T05:34:13;100857.25;;;21.15;100.00
64521;BME280;50896;46.714;17.322;2023-06-24T05:36:40;100857.63;;;21.38;100.00
64521;BME280;50896;46.714;17.322;2023-06-24T05:39:06;100858.66;;;21.80;100.00
64521;BME280;50896;46.714;17.322;2023-06-24T05:41:34;100857.16;;;21.84;100.00
64521;BME280;50896;46.714;17.322;2023-06-24T05:44:07;100862.88;;;22.44;100.00
64521;BME280;50896;46.714;17.322;2023-06-24T05:46:34;100852.22;;;22.61;100.00
64521;BME280;50896;46.714;17.322;2023-06-24T05:49:01;100850.47;;;22.78;100.00
64521;BME280;50896;46.714;17.322;2023-06-24T05:51:28;100849.44;;;22.91;100.00
64521;BME280;50896;46.714;17.322;2023-06-24T05:53:55;100850.41;;;23.09;100.00
64521;BME280;50896;46.714;17.322;2023-06-24T05:56:23;100866.34;;;23.17;100.00
64521;BME280;50896;46.714;17.322;2023-06-24T05:58:50;100868.31;;;23.10;100.00
64521;BME280;50896;46.714;17.322;2023-06-24T06:01:17;100866.78;;;23.02;100.00
64521;BME280;50896;46.714;17.322;2023-06-24T06:03:44;100861.47;;;22.95;100.00
64521;BME280;50896;46.714;17.322;2023-06-24T06:06:11;100859.56;;;22.84;100.00
64521;BME280;50896;46.714;17.322;2023-06-24T06:08:38;100855.31;;;22.76;100.00
64521;BME280;50896;46.714;17.322;2023-06-24T06:11:05;100861.63;;;23.48;100.00
64521;BME280;50896;46.714;17.322;2023-06-24T06:13:32;100858.97;;;24.00;100.00
64521;BME280;50896;46.714;17.322;2023-06-24T06:15:59;100851.16;;;24.33;100.00
64521;BME280;50896;46.714;17.322;2023-06-24T06:18:26;100848.97;;;24.18;100.00
64521;BME280;50896;46.714;17.322;2023-06-24T06:20:53;100855.84;;;24.37;100.00
64521;BME280;50896;46.714;17.322;2023-06-24T06:23:20;100861.19;;;24.03;100.00
64521;BME280;50896;46.714;17.322;2023-06-24T06:25:46;100874.25;;;24.18;100.00
64521;BME280;50896;46.714;17.322;2023-06-24T06:28:15;100864.63;;;23.87;100.00
64521;BME280;50896;46.714;17.322;2023-06-24T06:30:42;100865.72;;;23.74;100.00
64521;BME280;50896;46.714;17.322;2023-06-24T06:33:08;100865.94;;;23.96;100.00
64521;BME280;50896;46.714;17.322;2023-06-24T06:35:35;100853.09;;;23.80;100.00
64521;BME280;50896;46.714;17.322;2023-06-24T06:38:02;100848.53;;;24.09;100.00
64521;BME280;50896;46.714;17.322;2023-06-24T06:40:29;100858.66;;;24.14;100.00
64521;BME280;50896;46.714;17.322;2023-06-24T06:42:56;100850.19;;;24.10;100.00
64521;BME280;50896;46.714;17.322;2023-06-24T06:45:23;100859.22;;;23.99;100.00
64521;BME280;50896;46.714;17.322;2023-06-24T06:47:50;100855.75;;;24.03;100.00
64521;BME280;50896;46.714;17.322;2023-06-24T06:50:17;100850.84;;;23.88;100.00
64521;BME280;50896;46.714;17.322;2023-06-24T06:52:44;100864.66;;;23.63;100.00
64521;BME280;50896;46.714;17.322;2023-06-24T06:55:11;100862.53;;;23.89;100.00
64521;BME280;50896;46.714;17.322;2023-06-24T06:57:37;100864.03;;;23.97;100.00
64521;BME280;50896;46.714;17.322;2023-06-24T07:00:05;100866.78;;;23.85;100.00
64521;BME280;50896;46.714;17.322;2023-06-24T07:02:32;100867.38;;;23.75;100.00
64521;BME280;50896;46.714;17.322;2023-06-24T07:04:59;100881.88;;;23.93;100.00
64521;BME280;50896;46.714;17.322;2023-06-24T07:07:27;100859.31;;;23.80;100.00
64521;BME280;50896;46.714;17.322;2023-06-24T07:09:54;100880.91;;;23.87;100.00
64521;BME280;50896;46.714;17.322;2023-06-24T07:12:21;100889.44;;;23.79;100.00
64521;BME280;50896;46.714;17.322;2023-06-24T07:14:50;100885.28;;;23.76;100.00
64521;BME280;50896;46.714;17.322;2023-06-24T07:17:17;100888.97;;;23.34;100.00
64521;BME280;50896;46.714;17.322;2023-06-24T07:19:44;100886.16;;;23.53;100.00
64521;BME280;50896;46.714;17.322;2023-06-24T07:22:11;100880.84;;;23.46;100.00
64521;BME280;50896;46.714;17.322;2023-06-24T07:24:38;100889.94;;;23.16;100.00
64521;BME280;50896;46.714;17.322;2023-06-24T07:27:05;100871.66;;;23.35;100.00
64521;BME280;50896;46.714;17.322;2023-06-24T07:29:32;100881.69;;;23.35;100.00
64521;BME280;50896;46.714;17.322;2023-06-24T07:31:59;100873.69;;;23.40;100.00
64521;BME280;50896;46.714;17.322;2023-06-24T07:34:25;100873.53;;;23.59;100.00
64521;BME280;50896;46.714;17.322;2023-06-24T07:36:52;100883.91;;;23.14;100.00
64521;BME280;50896;46.714;17.322;2023-06-24T07:39:19;100883.00;;;22.78;100.00
64521;BME280;50896;46.714;17.322;2023-06-24T07:41:46;100885.84;;;22.41;100.00
64521;BME280;50896;46.714;17.322;2023-06-24T07:44:13;100884.78;;;22.24;100.00
64521;BME280;50896;46.714;17.322;2023-06-24T07:46:40;100884.22;;;21.84;100.00
64521;BME280;50896;46.714;17.322;2023-06-24T07:49:07;100894.13;;;21.72;100.00
64521;BME280;50896;46.714;17.322;2023-06-24T07:51:34;100896.47;;;21.68;100.00
64521;BME280;50896;46.714;17.322;2023-06-24T07:54:01;100885.56;;;21.57;100.00
64521;BME280;50896;46.714;17.322;2023-06-24T07:56:28;100906.16;;;21.58;100.00
64521;BME280;50896;46.714;17.322;2023-06-24T07:58:55;100895.88;;;21.41;100.00
64521;BME280;50896;46.714;17.322;2023-06-24T08:01:22;100898.06;;;21.32;100.00
64521;BME280;50896;46.714;17.322;2023-06-24T08:03:48;100900.19;;;21.24;100.00
64521;BME280;50896;46.714;17.322;2023-06-24T08:06:15;100900.00;;;21.25;100.00
64521;BME280;50896;46.714;17.322;2023-06-24T08:08:42;100903.06;;;21.29;100.00
64521;BME280;50896;46.714;17.322;2023-06-24T08:11:09;100898.09;;;21.26;100.00
64521;BME280;50896;46.714;17.322;2023-06-24T08:13:36;100900.03;;;21.19;100.00
64521;BME280;50896;46.714;17.322;2023-06-24T08:16:02;100905.75;;;21.29;100.00
64521;BME280;50896;46.714;17.322;2023-06-24T08:18:29;100905.03;;;21.40;100.00
64521;BME280;50896;46.714;17.322;2023-06-24T08:20:56;100899.34;;;21.48;100.00
64521;BME280;50896;46.714;17.322;2023-06-24T08:23:23;100903.00;;;21.61;100.00
64521;BME280;50896;46.714;17.322;2023-06-24T08:25:50;100897.38;;;21.62;100.00
64521;BME280;50896;46.714;17.322;2023-06-24T08:28:24;100891.06;;;21.68;100.00
64521;BME280;50896;46.714;17.322;2023-06-24T08:30:51;100888.03;;;21.58;100.00
64521;BME280;50896;46.714;17.322;2023-06-24T08:33:17;100890.00;;;21.70;100.00
64521;BME280;50896;46.714;17.322;2023-06-24T08:35:44;100895.34;;;21.76;100.00
64521;BME280;50896;46.714;17.322;2023-06-24T08:38:11;100889.41;;;21.67;100.00
64521;BME280;50896;46.714;17.322;2023-06-24T08:40:38;100891.59;;;21.77;100.00
64521;BME280;50896;46.714;17.322;2023-06-24T08:43:06;100897.97;;;21.83;100.00
64521;BME280;50896;46.714;17.322;2023-06-24T08:45:33;100898.66;;;21.97;100.00
64521;BME280;50896;46.714;17.322;2023-06-24T08:48:00;100903.47;;;21.95;100.00
64521;BME280;50896;46.714;17.322;2023-06-24T08:50:34;100897.84;;;21.96;100.00
64521;BME280;50896;46.714;17.322;2023-06-24T08:53:09;100905.19;;;21.89;100.00
64521;BME280;50896;46.714;17.322;2023-06-24T08:55:39;100908.66;;;21.96;100.00
64521;BME280;50896;46.714;17.322;2023-06-24T08:58:07;100897.38;;;21.99;100.00
64521;BME280;50896;46.714;17.322;2023-06-24T09:00:34;100897.63;;;21.98;100.00
64521;BME280;50896;46.714;17.322;2023-06-24T09:03:01;100893.03;;;21.80;100.00
64521;BME280;50896;46.714;17.322;2023-06-24T09:05:28;100901.91;;;21.68;100.00
64521;BME280;50896;46.714;17.322;2023-06-24T09:07:55;100895.13;;;21.78;100.00
64521;BME280;50896;46.714;17.322;2023-06-24T09:10:30;100886.88;;;21.73;100.00
64521;BME280;50896;46.714;17.322;2023-06-24T09:13:01;100884.38;;;21.90;100.00
64521;BME280;50896;46.714;17.322;2023-06-24T09:15:33;100894.28;;;21.96;100.00
64521;BME280;50896;46.714;17.322;2023-06-24T09:18:01;100891.00;;;21.94;100.00
64521;BME280;50896;46.714;17.322;2023-06-24T09:20:30;100889.09;;;22.13;100.00
64521;BME280;50896;46.714;17.322;2023-06-24T09:23:02;100884.06;;;22.16;100.00
64521;BME280;50896;46.714;17.322;2023-06-24T09:25:30;100883.34;;;22.21;100.00
64521;BME280;50896;46.714;17.322;2023-06-24T09:28:03;100878.16;;;22.19;100.00
64521;BME280;50896;46.714;17.322;2023-06-24T09:30:30;100878.47;;;22.30;100.00
64521;BME280;50896;46.714;17.322;2023-06-24T09:32:57;100873.22;;;22.35;100.00
64521;BME280;50896;46.714;17.322;2023-06-24T09:35:25;100871.75;;;22.32;100.00
64521;BME280;50896;46.714;17.322;2023-06-24T09:37:56;100859.06;;;22.14;100.00
64521;BME280;50896;46.714;17.322;2023-06-24T09:40:28;100881.63;;;22.27;100.00
64521;BME280;50896;46.714;17.322;2023-06-24T09:42:58;100875.81;;;22.42;100.00
64521;BME280;50896;46.714;17.322;2023-06-24T09:45:28;100878.13;;;22.57;100.00
64521;BME280;50896;46.714;17.322;2023-06-24T09:47:56;100878.44;;;22.48;100.00
64521;BME280;50896;46.714;17.322;2023-06-24T09:50:24;100873.75;;;22.56;100.00
64521;BME280;50896;46.714;17.322;2023-06-24T09:52:52;100868.47;;;22.61;100.00
64521;BME280;50896;46.714;17.322;2023-06-24T09:55:19;100853.66;;;22.63;100.00
64521;BME280;50896;46.714;17.322;2023-06-24T09:57:49;100866.84;;;22.72;100.00
64521;BME280;50896;46.714;17.322;2023-06-24T10:00:18;100858.72;;;22.72;100.00
64521;BME280;50896;46.714;17.322;2023-06-24T10:02:47;100861.22;;;22.97;100.00
64521;BME280;50896;46.714;17.322;2023-06-24T10:05:15;100860.59;;;22.71;100.00
64521;BME280;50896;46.714;17.322;2023-06-24T10:07:42;100856.94;;;22.77;100.00
64521;BME280;50896;46.714;17.322;2023-06-24T10:10:10;100871.59;;;22.76;100.00
64521;BME280;50896;46.714;17.322;2023-06-24T10:12:37;100867.81;;;22.89;100.00
64521;BME280;50896;46.714;17.322;2023-06-24T10:15:05;100864.91;;;23.02;100.00
64521;BME280;50896;46.714;17.322;2023-06-24T10:17:32;100864.53;;;22.99;100.00
64521;BME280;50896;46.714;17.322;2023-06-24T10:20:03;100854.75;;;22.86;100.00
64521;BME280;50896;46.714;17.322;2023-06-24T10:22:30;100861.94;;;22.80;100.00
64521;BME280;50896;46.714;17.322;2023-06-24T10:25:04;100867.78;;;22.77;100.00
64521;BME280;50896;46.714;17.322;2023-06-24T10:27:38;100863.69;;;22.86;100.00
64521;BME280;50896;46.714;17.322;2023-06-24T10:30:06;100856.41;;;22.99;100.00
64521;BME280;50896;46.714;17.322;2023-06-24T10:32:41;100861.00;;;22.98;100.00
64521;BME280;50896;46.714;17.322;2023-06-24T10:35:23;100855.09;;;22.90;100.00
64521;BME280;50896;46.714;17.322;2023-06-24T10:37:56;100850.16;;;22.98;100.00
64521;BME280;50896;46.714;17.322;2023-06-24T10:40:39;100852.28;;;22.84;100.00
64521;BME280;50896;46.714;17.322;2023-06-24T10:43:26;100858.84;;;22.77;100.00
64521;BME280;50896;46.714;17.322;2023-06-24T10:45:57;100856.03;;;22.83;100.00
64521;BME280;50896;46.714;17.322;2023-06-24T10:48:26;100846.28;;;22.94;100.00
64521;BME280;50896;46.714;17.322;2023-06-24T10:50:52;100852.63;;;22.88;100.00
64521;BME280;50896;46.714;17.322;2023-06-24T10:53:21;100848.38;;;22.80;100.00
64521;BME280;50896;46.714;17.322;2023-06-24T10:55:48;100844.94;;;22.73;100.00
64521;BME280;50896;46.714;17.322;2023-06-24T10:58:15;100855.41;;;22.81;100.00
64521;BME280;50896;46.714;17.322;2023-06-24T11:00:43;100845.53;;;22.87;100.00
64521;BME280;50896;46.714;17.322;2023-06-24T11:03:15;100855.19;;;22.71;100.00
64521;BME280;50896;46.714;17.322;2023-06-24T11:05:44;100864.25;;;22.65;100.00
64521;BME280;50896;46.714;17.322;2023-06-24T11:08:11;100852.97;;;22.92;100.00
64521;BME280;50896;46.714;17.322;2023-06-24T11:10:46;100854.84;;;22.79;100.00
64521;BME280;50896;46.714;17.322;2023-06-24T11:13:13;100855.19;;;22.71;100.00
64521;BME280;50896;46.714;17.322;2023-06-24T11:15:40;100848.56;;;22.55;100.00
64521;BME280;50896;46.714;17.322;2023-06-24T11:18:08;100854.69;;;22.62;100.00
64521;BME280;50896;46.714;17.322;2023-06-24T11:20:37;100849.63;;;22.66;100.00
64521;BME280;50896;46.714;17.322;2023-06-24T11:23:09;100850.66;;;22.53;100.00
64521;BME280;50896;46.714;17.322;2023-06-24T11:25:41;100858.25;;;22.14;100.00
64521;BME280;50896;46.714;17.322;2023-06-24T11:28:18;100858.50;;;22.12;100.00
64521;BME280;50896;46.714;17.322;2023-06-24T11:30:49;100853.38;;;22.04;100.00
64521;BME280;50896;46.714;17.322;2023-06-24T11:33:29;100857.91;;;21.92;100.00
64521;BME280;50896;46.714;17.322;2023-06-24T11:35:56;100847.97;;;22.04;100.00
64521;BME280;50896;46.714;17.322;2023-06-24T11:38:23;100855.16;;;22.10;100.00
64521;BME280;50896;46.714;17.322;2023-06-24T11:40:51;100857.66;;;22.12;100.00
64521;BME280;50896;46.714;17.322;2023-06-24T11:43:17;100864.28;;;21.97;100.00
64521;BME280;50896;46.714;17.322;2023-06-24T11:45:48;100869.47;;;21.99;100.00
64521;BME280;50896;46.714;17.322;2023-06-24T11:48:14;100863.19;;;21.87;100.00
64521;BME280;50896;46.714;17.322;2023-06-24T11:50:41;100874.63;;;21.70;100.00
64521;BME280;50896;46.714;17.322;2023-06-24T11:53:08;100879.34;;;21.56;100.00
64521;BME280;50896;46.714;17.322;2023-06-24T11:55:35;100868.28;;;21.58;100.00
64521;BME280;50896;46.714;17.322;2023-06-24T11:58:03;100855.75;;;21.63;100.00
64521;BME280;50896;46.714;17.322;2023-06-24T12:00:35;100865.28;;;21.66;100.00
64521;BME280;50896;46.714;17.322;2023-06-24T12:03:06;100867.03;;;21.60;100.00
64521;BME280;50896;46.714;17.322;2023-06-24T12:05:38;100867.03;;;21.35;100.00
64521;BME280;50896;46.714;17.322;2023-06-24T12:08:11;100875.78;;;21.56;100.00
64521;BME280;50896;46.714;17.322;2023-06-24T12:10:40;100859.03;;;21.65;100.00
64521;BME280;50896;46.714;17.322;2023-06-24T12:13:07;100874.16;;;21.55;100.00
64521;BME280;50896;46.714;17.322;2023-06-24T12:15:37;100865.69;;;21.44;100.00
64521;BME280;50896;46.714;17.322;2023-06-24T12:18:03;100866.34;;;21.65;100.00
64521;BME280;50896;46.714;17.322;2023-06-24T12:20:32;100869.09;;;21.58;100.00
64521;BME280;50896;46.714;17.322;2023-06-24T12:23:04;100873.09;;;21.56;100.00
64521;BME280;50896;46.714;17.322;2023-06-24T12:25:30;100866.63;;;21.57;100.00
64521;BME280;50896;46.714;17.322;2023-06-24T12:27:57;100864.66;;;21.64;100.00
64521;BME280;50896;46.714;17.322;2023-06-24T12:30:27;100866.72;;;21.68;100.00
64521;BME280;50896;46.714;17.322;2023-06-24T12:32:54;100865.00;;;21.74;100.00
64521;BME280;50896;46.714;17.322;2023-06-24T12:35:22;100863.56;;;21.72;100.00
64521;BME280;50896;46.714;17.322;2023-06-24T12:37:52;100861.75;;;21.65;100.00
64521;BME280;50896;46.714;17.322;2023-06-24T12:40:18;100857.75;;;21.68;100.00
64521;BME280;50896;46.714;17.322;2023-06-24T12:42:46;100859.19;;;21.71;100.00
64521;BME280;50896;46.714;17.322;2023-06-24T12:45:13;100858.69;;;21.62;100.00
64521;BME280;50896;46.714;17.322;2023-06-24T12:47:40;100843.56;;;21.73;100.00
64521;BME280;50896;46.714;17.322;2023-06-24T12:50:07;100844.56;;;21.78;100.00
64521;BME280;50896;46.714;17.322;2023-06-24T12:52:35;100837.28;;;21.91;100.00